createdAt,value
2023-04-02T00:02:22.535Z,12.80
2023-04-02T00:05:18.183Z,17.40
2023-04-02T00:07:48.988Z,15.68
2023-04-02T00:10:36.692Z,16.33
2023-04-02T00:13:31.770Z,13.20
2023-04-02T00:15:59.997Z,12.13
2023-04-02T00:18:27.693Z,14.45
2023-04-02T00:21:09.448Z,18.65
2023-04-02T00:23:38.856Z,18.05
2023-04-02T00:26:24.572Z,20.92
2023-04-02T00:28:52.006Z,15.57
2023-04-02T00:31:19.839Z,17.17
2023-04-02T00:33:46.893Z,19.13
2023-04-02T00:36:13.498Z,20.55
2023-04-02T00:38:43.772Z,18.75
2023-04-02T00:41:14.721Z,19.60
2023-04-02T00:43:44.620Z,15.98
2023-04-02T00:46:15.279Z,15.23
2023-04-02T00:48:48.970Z,16.88
2023-04-02T00:51:27.964Z,16.38
2023-04-02T00:53:56.372Z,14.63
2023-04-02T00:56:27.412Z,19.08
2023-04-02T00:58:55.680Z,16.02
2023-04-02T01:01:25.762Z,18.20
2023-04-02T01:03:58.017Z,15.32
2023-04-02T01:06:28.958Z,19.63
2023-04-02T01:09:19.537Z,17.80
2023-04-02T01:12:28.497Z,16.05
2023-04-02T01:15:12.254Z,17.80
2023-04-02T01:17:42.933Z,16.00
2023-04-02T01:20:33.794Z,17.23
2023-04-02T01:23:03.170Z,17.73
2023-04-02T01:25:38.631Z,20.25
2023-04-02T01:28:22.865Z,16.30
2023-04-02T01:30:55.308Z,17.60
2023-04-02T01:33:24.237Z,16.55
2023-04-02T01:36:14.378Z,19.15
2023-04-02T01:38:47.956Z,14.00
2023-04-02T01:41:25.134Z,13.55
2023-04-02T01:44:30.713Z,16.02
2023-04-02T01:47:00.791Z,16.13
2023-04-02T01:49:27.484Z,19.10
2023-04-02T01:51:56.813Z,15.43
2023-04-02T01:54:23.971Z,15.02
2023-04-02T01:56:51.380Z,14.38
2023-04-02T01:59:20.174Z,15.70
2023-04-02T02:02:07.791Z,12.57
2023-04-02T02:04:34.609Z,15.90
2023-04-02T02:07:01.606Z,13.85
2023-04-02T02:09:31.085Z,15.13
2023-04-02T02:11:59.039Z,12.95
2023-04-02T02:14:28.160Z,12.85
2023-04-02T02:16:57.816Z,11.45
2023-04-02T02:19:38.766Z,15.35
2023-04-02T02:22:14.190Z,12.85
2023-04-02T02:24:41.165Z,12.32
2023-04-02T02:27:22.771Z,11.57
2023-04-02T02:29:53.204Z,15.45
2023-04-02T02:32:21.419Z,14.35
2023-04-02T02:34:58.940Z,14.82
2023-04-02T02:37:29.674Z,11.73
2023-04-02T02:39:58.696Z,9.80
2023-04-02T02:42:35.304Z,12.27
2023-04-02T02:45:06.313Z,11.73
2023-04-02T02:47:38.233Z,10.50
2023-04-02T02:50:08.020Z,11.57
2023-04-02T02:52:39.261Z,10.40
2023-04-02T02:55:12.722Z,11.75
2023-04-02T02:57:43.973Z,12.02
2023-04-02T03:00:11.816Z,13.48
2023-04-02T03:02:40.407Z,13.02
2023-04-02T03:05:08.123Z,12.45
2023-04-02T03:07:34.938Z,11.70
2023-04-02T03:10:13.486Z,11.60
2023-04-02T03:12:45.852Z,11.30
2023-04-02T03:15:23.559Z,9.75
2023-04-02T03:17:57.990Z,13.45
2023-04-02T03:20:56.413Z,12.43
2023-04-02T03:23:39.673Z,11.90
2023-04-02T03:26:18.644Z,10.55
2023-04-02T03:28:54.775Z,12.73
2023-04-02T03:31:31.063Z,13.35
2023-04-02T03:34:01.432Z,15.00
2023-04-02T03:36:28.882Z,12.55
2023-04-02T03:39:13.754Z,12.93
2023-04-02T03:41:55.953Z,13.32
2023-04-02T03:44:54.775Z,12.00
2023-04-02T03:47:49.811Z,12.13
2023-04-02T03:50:37.530Z,17.40
2023-04-02T03:53:04.726Z,13.35
2023-04-02T03:55:34.696Z,14.50
2023-04-02T03:58:39.737Z,14.85
2023-04-02T04:01:20.655Z,12.65
2023-04-02T04:03:56.270Z,14.52
2023-04-02T04:06:29.365Z,12.88
2023-04-02T04:09:01.877Z,12.27
2023-04-02T04:11:34.936Z,15.50
2023-04-02T04:14:07.153Z,13.45
2023-04-02T04:16:41.573Z,12.85
2023-04-02T04:19:18.190Z,13.60
2023-04-02T04:21:46.181Z,15.10
2023-04-02T04:24:20.394Z,14.85
2023-04-02T04:27:52.857Z,16.15
2023-04-02T04:30:29.249Z,12.70
2023-04-02T04:33:04.169Z,11.43
2023-04-02T04:35:39.217Z,12.02
2023-04-02T04:38:12.154Z,15.77
2023-04-02T04:40:44.766Z,12.55
2023-04-02T04:43:16.439Z,11.38
2023-04-02T04:46:12.899Z,12.25
2023-04-02T04:49:04.617Z,13.32
2023-04-02T04:51:38.518Z,10.68
2023-04-02T04:54:05.211Z,16.23
2023-04-02T04:56:32.400Z,13.27
2023-04-02T04:59:19.275Z,13.30
2023-04-02T05:01:48.663Z,14.88
2023-04-02T05:04:21.917Z,10.75
2023-04-02T05:06:59.998Z,13.52
2023-04-02T05:09:34.320Z,13.00
2023-04-02T05:12:17.230Z,14.95
2023-04-02T05:15:08.986Z,14.00
2023-04-02T05:17:42.926Z,11.52
2023-04-02T05:20:30.031Z,11.63
2023-04-02T05:23:03.812Z,11.23
2023-04-02T05:25:31.781Z,10.07
2023-04-02T05:28:20.233Z,12.27
2023-04-02T05:30:54.454Z,10.52
2023-04-02T05:33:24.843Z,10.15
2023-04-02T05:35:59.554Z,11.02
2023-04-02T05:38:32.209Z,13.65
2023-04-02T05:41:00.205Z,9.73
2023-04-02T05:43:28.294Z,11.73
2023-04-02T05:45:57.775Z,13.13
2023-04-02T05:48:32.492Z,10.80
2023-04-02T05:50:59.856Z,12.07
2023-04-02T05:53:33.942Z,9.80
2023-04-02T05:56:32.024Z,10.07
2023-04-02T05:59:10.644Z,12.30
2023-04-02T06:02:00.231Z,10.55
2023-04-02T06:04:31.333Z,16.25
2023-04-02T06:07:06.041Z,9.25
2023-04-02T06:09:51.446Z,11.55
2023-04-02T06:12:23.993Z,11.50
2023-04-02T06:14:50.609Z,14.63
2023-04-02T06:17:19.413Z,12.25
2023-04-02T06:19:47.852Z,10.90
2023-04-02T06:22:23.404Z,10.90
2023-04-02T06:24:57.958Z,10.35
2023-04-02T06:27:26.564Z,10.52
2023-04-02T06:32:24.167Z,11.80
2023-04-02T06:34:50.898Z,11.20
2023-04-02T06:37:27.342Z,9.10
2023-04-02T06:39:54.809Z,10.10
2023-04-02T06:42:24.885Z,12.15
2023-04-02T06:44:51.642Z,10.63
2023-04-02T06:47:27.370Z,9.02
2023-04-02T06:49:56.921Z,15.70
2023-04-02T06:52:27.402Z,9.98
2023-04-02T06:54:53.890Z,8.77
2023-04-02T06:57:20.831Z,11.48
2023-04-02T06:59:47.390Z,9.10
2023-04-02T07:02:25.128Z,9.98
2023-04-02T07:04:51.880Z,9.77
2023-04-02T07:07:18.404Z,7.97
2023-04-02T07:09:44.888Z,7.60
2023-04-02T07:12:12.765Z,8.80
2023-04-02T07:14:39.282Z,11.43
2023-04-02T07:17:05.849Z,12.73
2023-04-02T07:19:32.412Z,12.50
2023-04-02T07:21:58.913Z,9.27
2023-04-02T07:24:25.538Z,11.93
2023-04-02T07:26:52.086Z,11.25
2023-04-02T07:29:19.896Z,9.40
2023-04-02T07:31:46.653Z,9.85
2023-04-02T07:34:13.214Z,10.38
2023-04-02T07:36:39.812Z,12.27
2023-04-02T07:39:06.349Z,15.02
2023-04-02T07:41:32.854Z,13.75
2023-04-02T07:43:59.417Z,10.80
2023-04-02T07:46:26.572Z,10.40
2023-04-02T07:48:53.320Z,12.90
2023-04-02T07:51:22.480Z,9.25
2023-04-02T07:53:55.722Z,16.85
2023-04-02T07:56:24.327Z,8.80
2023-04-02T07:58:50.957Z,11.57
2023-04-02T08:01:24.370Z,11.93
2023-04-02T08:03:53.728Z,7.47
2023-04-02T08:06:21.278Z,11.07
2023-04-02T08:08:47.898Z,13.70
2023-04-02T08:11:14.448Z,10.57
2023-04-02T08:13:41.461Z,9.65
2023-04-02T08:16:08.494Z,10.07
2023-04-02T08:18:35.297Z,11.00
2023-04-02T08:21:02.016Z,8.70
2023-04-02T08:23:29.000Z,7.25
2023-04-02T08:25:55.944Z,7.57
2023-04-02T08:28:22.991Z,8.93
2023-04-02T08:30:49.608Z,9.18
2023-04-02T08:33:17.981Z,9.43
2023-04-02T08:35:48.631Z,28.50
2023-04-02T08:38:16.786Z,14.13
2023-04-02T08:40:45.836Z,10.68
2023-04-02T08:43:33.626Z,7.60
2023-04-02T08:46:00.506Z,6.97
2023-04-02T08:48:27.313Z,8.20
2023-04-02T08:50:54.104Z,15.02
2023-04-02T08:53:27.339Z,5.45
2023-04-02T08:56:09.808Z,7.75
2023-04-02T08:58:41.562Z,8.98
2023-04-02T09:01:15.822Z,6.35
2023-04-02T09:03:45.665Z,6.20
2023-04-02T09:06:16.646Z,8.43
2023-04-02T09:08:44.454Z,7.32
2023-04-02T09:11:39.551Z,9.32
2023-04-02T09:14:14.854Z,7.90
2023-04-02T09:16:48.058Z,8.93
2023-04-02T09:19:30.003Z,8.38
2023-04-02T09:21:59.935Z,10.65
2023-04-02T09:24:26.551Z,7.72
2023-04-02T09:26:53.344Z,9.60
2023-04-02T09:29:40.167Z,10.13
2023-04-02T09:32:28.063Z,8.93
2023-04-02T09:35:28.737Z,5.18
2023-04-02T09:38:07.374Z,15.15
2023-04-02T09:40:44.111Z,8.93
2023-04-02T09:43:16.830Z,7.80
2023-04-02T09:45:44.734Z,8.15
2023-04-02T09:48:24.744Z,7.72
2023-04-02T09:51:12.599Z,11.80
2023-04-02T09:53:45.926Z,8.88
2023-04-02T09:56:24.215Z,11.80
2023-04-02T09:59:16.898Z,8.45
2023-04-02T10:01:56.713Z,8.07
2023-04-02T10:04:47.216Z,9.02
2023-04-02T10:07:37.995Z,8.15
2023-04-02T10:10:19.312Z,12.52
2023-04-02T10:12:50.352Z,7.68
2023-04-02T10:15:23.088Z,8.13
2023-04-02T10:17:57.658Z,8.82
2023-04-02T10:22:51.256Z,7.63
2023-04-02T10:25:20.338Z,7.13
2023-04-02T10:27:46.824Z,10.13
2023-04-02T10:30:19.384Z,7.57
2023-04-02T10:32:55.109Z,7.13
2023-04-02T10:35:21.686Z,8.15
2023-04-02T10:38:13.594Z,7.55
2023-04-02T10:40:48.318Z,8.57
2023-04-02T10:43:39.178Z,8.00
2023-04-02T10:46:32.150Z,10.25
2023-04-02T10:49:14.159Z,20.98
2023-04-02T10:51:46.663Z,8.05
2023-04-02T10:54:50.825Z,7.82
2023-04-02T10:57:40.466Z,9.85
2023-04-02T11:00:16.802Z,5.10
2023-04-02T11:03:09.503Z,7.20
2023-04-02T11:05:51.316Z,8.60
2023-04-02T11:08:38.442Z,8.02
2023-04-02T11:11:14.172Z,8.15
2023-04-02T11:14:00.492Z,5.80
2023-04-02T11:16:27.877Z,5.82
2023-04-02T11:19:19.472Z,8.73
2023-04-02T11:22:00.279Z,9.98
2023-04-02T11:24:31.725Z,10.02
2023-04-02T11:27:10.513Z,10.80
2023-04-02T11:30:06.177Z,8.02
2023-04-02T11:32:39.503Z,7.10
2023-04-02T11:35:32.224Z,9.88
2023-04-02T11:38:10.929Z,6.40
2023-04-02T11:40:45.091Z,7.43
2023-04-02T11:43:30.448Z,9.27
2023-04-02T11:45:58.149Z,7.72
2023-04-02T11:48:36.190Z,13.50
2023-04-02T11:51:22.466Z,7.57
2023-04-02T11:53:53.926Z,13.65
2023-04-02T11:56:44.207Z,8.50
2023-04-02T11:59:29.087Z,12.55
2023-04-02T12:02:32.887Z,8.10
2023-04-02T12:05:10.274Z,9.02
2023-04-02T12:07:53.390Z,7.55
2023-04-02T12:10:22.763Z,5.85
2023-04-02T12:12:50.572Z,7.22
2023-04-02T12:15:45.755Z,6.65
2023-04-02T12:18:24.614Z,7.00
2023-04-02T12:20:56.485Z,7.97
2023-04-02T12:23:31.276Z,8.13
2023-04-02T12:26:01.334Z,7.53
2023-04-02T12:28:29.157Z,5.22
2023-04-02T12:31:09.425Z,11.38
2023-04-02T12:33:38.183Z,8.55
2023-04-02T12:36:19.352Z,8.38
2023-04-02T12:38:52.036Z,5.07
2023-04-02T12:41:32.153Z,6.63
2023-04-02T12:44:23.174Z,8.60
2023-04-02T12:46:51.268Z,5.78
2023-04-02T12:51:54.514Z,4.38
2023-04-02T12:54:21.539Z,5.10
2023-04-02T12:56:49.284Z,8.20
2023-04-02T12:59:39.057Z,6.20
2023-04-02T13:02:22.338Z,8.32
2023-04-02T13:04:51.244Z,7.00
2023-04-02T13:07:20.240Z,7.07
2023-04-02T13:09:49.983Z,9.98
2023-04-02T13:12:34.793Z,5.03
2023-04-02T13:15:03.848Z,6.15
2023-04-02T13:17:42.210Z,7.93
2023-04-02T13:20:54.737Z,8.45
2023-04-02T13:23:30.308Z,7.07
2023-04-02T13:26:01.756Z,6.88
2023-04-02T13:28:28.701Z,7.07
2023-04-02T13:30:55.454Z,7.15
2023-04-02T13:33:22.028Z,5.15
2023-04-02T13:35:48.639Z,4.38
2023-04-02T13:38:15.136Z,8.93
2023-04-02T13:40:41.970Z,7.72
2023-04-02T13:43:18.876Z,6.82
2023-04-02T13:45:48.991Z,8.32
2023-04-02T13:48:18.064Z,8.57
2023-04-02T13:50:45.116Z,8.43
2023-04-02T13:53:26.250Z,8.40
2023-04-02T13:55:53.570Z,6.85
2023-04-02T13:58:20.196Z,6.40
2023-04-02T14:00:47.482Z,7.15
2023-04-02T14:03:18.550Z,6.82
2023-04-02T14:05:57.464Z,6.63
2023-04-02T14:08:50.643Z,6.35
2023-04-02T14:11:47.386Z,7.72
2023-04-02T14:14:26.282Z,5.63
2023-04-02T14:17:17.402Z,4.43
2023-04-02T14:19:52.970Z,7.35
2023-04-02T14:22:32.235Z,7.25
2023-04-02T14:25:37.214Z,6.80
2023-04-02T14:28:09.688Z,6.28
2023-04-02T14:30:52.806Z,9.50
2023-04-02T14:33:56.703Z,7.90
2023-04-02T14:36:58.607Z,4.97
2023-04-02T14:40:04.338Z,9.25
2023-04-02T14:42:36.096Z,8.73
2023-04-02T14:45:11.014Z,5.32
2023-04-02T14:47:42.997Z,6.38
2023-04-02T14:50:22.573Z,6.78
2023-04-02T14:52:52.583Z,9.40
2023-04-02T14:55:27.539Z,6.05
2023-04-02T14:57:55.579Z,6.15
2023-04-02T15:03:23.613Z,5.22
2023-04-02T15:05:54.901Z,6.65
2023-04-02T15:08:37.573Z,5.85
2023-04-02T15:11:19.305Z,10.10
2023-04-02T15:13:47.176Z,5.10
2023-04-02T15:16:19.374Z,6.78
2023-04-02T15:18:47.146Z,5.03
2023-04-02T15:21:16.750Z,5.97
2023-04-02T15:24:21.664Z,6.18
2023-04-02T15:26:51.223Z,8.52
2023-04-02T15:29:37.193Z,5.85
2023-04-02T15:32:30.481Z,5.88
2023-04-02T15:35:28.603Z,5.68
2023-04-02T15:38:22.740Z,11.20
2023-04-02T15:41:04.898Z,7.22
2023-04-02T15:43:37.395Z,7.63
2023-04-02T15:46:16.342Z,9.60
2023-04-02T15:49:04.739Z,5.93
2023-04-02T15:51:35.277Z,6.38
2023-04-02T15:54:20.679Z,5.68
2023-04-02T15:57:02.340Z,5.55
2023-04-02T15:59:44.177Z,3.53
2023-04-02T16:02:38.727Z,7.22
2023-04-02T16:05:37.712Z,6.03
2023-04-02T16:08:14.083Z,6.20
2023-04-02T16:10:42.963Z,7.85
2023-04-02T16:13:16.187Z,6.25
2023-04-02T16:15:48.084Z,10.52
2023-04-02T16:18:32.835Z,7.28
2023-04-02T16:21:01.658Z,6.25
2023-04-02T16:23:36.970Z,11.52
2023-04-02T16:26:23.705Z,6.50
2023-04-02T16:29:19.237Z,15.50
2023-04-02T16:32:03.713Z,5.03
2023-04-02T16:34:52.048Z,5.45
2023-04-02T16:37:31.094Z,8.05
2023-04-02T16:40:20.955Z,7.65
2023-04-02T16:43:13.240Z,5.50
2023-04-02T16:46:20.277Z,7.95
2023-04-02T16:49:00.041Z,5.05
2023-04-02T16:51:38.243Z,9.23
2023-04-02T16:54:23.547Z,8.43
2023-04-02T16:57:08.254Z,7.82
2023-04-02T16:59:44.430Z,7.22
2023-04-02T17:02:36.084Z,7.00
2023-04-02T17:05:27.126Z,9.85
2023-04-02T17:08:21.922Z,8.18
2023-04-02T17:11:07.960Z,6.65
2023-04-02T17:13:41.405Z,5.38
2023-04-02T17:16:22.316Z,6.43
2023-04-02T17:18:51.541Z,6.55
2023-04-02T17:21:25.224Z,8.82
2023-04-02T17:23:57.602Z,9.35
2023-04-02T17:26:29.552Z,5.72
2023-04-02T17:28:58.309Z,5.57
2023-04-02T17:31:27.574Z,8.30
2023-04-02T17:33:54.173Z,7.65
2023-04-02T17:36:29.857Z,7.63
2023-04-02T17:39:08.942Z,5.50
2023-04-02T17:41:44.513Z,6.28
2023-04-02T17:44:20.392Z,6.72
2023-04-02T17:47:16.204Z,5.85
2023-04-02T17:50:26.623Z,5.38
2023-04-02T17:53:19.164Z,4.40
2023-04-02T17:56:17.399Z,4.03
2023-04-02T17:58:49.955Z,7.18
2023-04-02T18:01:34.026Z,5.70
2023-04-02T18:04:27.094Z,9.77
2023-04-02T18:07:38.422Z,6.35
2023-04-02T18:10:07.889Z,3.92
2023-04-02T18:13:05.408Z,3.97
2023-04-02T18:15:42.408Z,6.63
2023-04-02T18:18:31.321Z,6.72
2023-04-02T18:21:18.997Z,6.82
2023-04-02T18:27:02.322Z,9.25
2023-04-02T18:29:47.611Z,8.05
2023-04-02T18:32:39.185Z,6.50
2023-04-02T18:35:27.492Z,11.50
2023-04-02T18:38:20.340Z,11.07
2023-04-02T18:40:55.827Z,7.45
2023-04-02T18:43:48.151Z,8.70
2023-04-02T18:46:24.326Z,9.07
2023-04-02T18:49:15.491Z,7.80
2023-04-02T18:51:42.048Z,8.45
2023-04-02T18:54:08.532Z,4.78
2023-04-02T18:56:38.220Z,8.45
2023-04-02T18:59:35.380Z,7.20
2023-04-02T19:02:29.443Z,7.18
2023-04-02T19:07:34.031Z,5.43
2023-04-02T19:10:07.877Z,9.88
2023-04-02T19:12:35.585Z,5.10
2023-04-02T19:15:02.647Z,9.35
2023-04-02T19:17:29.223Z,6.22
2023-04-02T19:20:11.009Z,5.03
2023-04-02T19:22:43.488Z,5.75
2023-04-02T19:25:28.795Z,7.68
2023-04-02T19:28:04.359Z,10.13
2023-04-02T19:31:08.728Z,7.25
2023-04-02T19:33:50.932Z,8.82
2023-04-02T19:36:29.581Z,4.70
2023-04-02T19:39:29.154Z,7.45
2023-04-02T19:42:07.804Z,6.82
2023-04-02T19:44:34.366Z,7.97
2023-04-02T19:47:01.020Z,12.65
2023-04-02T19:49:32.942Z,8.85
2023-04-02T19:51:59.427Z,5.07
2023-04-02T19:54:26.305Z,8.43
2023-04-02T19:56:52.851Z,5.68
2023-04-02T19:59:19.368Z,6.40
2023-04-02T20:01:46.680Z,6.25
2023-04-02T20:04:13.753Z,7.93
2023-04-02T20:06:40.412Z,8.13
2023-04-02T20:09:08.509Z,7.90
2023-04-02T20:11:36.651Z,5.78
2023-04-02T20:14:03.209Z,8.75
2023-04-02T20:16:29.784Z,7.78
2023-04-02T20:18:56.569Z,6.55
2023-04-02T20:21:23.057Z,6.68
2023-04-02T20:23:53.576Z,4.55
2023-04-02T20:26:20.115Z,7.43
2023-04-02T20:28:46.658Z,7.85
2023-04-02T20:31:16.814Z,7.40
2023-04-02T20:33:47.971Z,10.35
2023-04-02T20:36:16.798Z,7.85
2023-04-02T20:38:43.474Z,5.13
2023-04-02T20:41:10.382Z,6.03
2023-04-02T20:43:40.343Z,4.13
2023-04-02T20:46:09.516Z,12.27
2023-04-02T20:48:37.655Z,6.10
2023-04-02T20:51:06.615Z,9.77
2023-04-02T20:53:35.243Z,7.32
2023-04-02T20:56:23.431Z,3.60
2023-04-02T20:58:50.004Z,11.73
2023-04-02T21:01:24.681Z,7.10
2023-04-02T21:04:04.117Z,4.57
2023-04-02T21:06:33.038Z,6.97
2023-04-02T21:09:01.765Z,8.02
2023-04-02T21:11:28.468Z,8.32
2023-04-02T21:13:55.041Z,6.75
2023-04-02T21:16:24.020Z,5.25
2023-04-02T21:18:52.210Z,7.05
2023-04-02T21:21:19.544Z,6.13
2023-04-02T21:23:46.338Z,8.38
2023-04-02T21:26:17.461Z,6.95
2023-04-02T21:28:45.306Z,10.50
2023-04-02T21:31:13.376Z,10.52
2023-04-02T21:33:42.722Z,5.72
2023-04-02T21:36:11.540Z,6.68
2023-04-02T21:38:42.865Z,6.07
2023-04-02T21:41:14.022Z,7.00
2023-04-02T21:43:40.635Z,6.07
2023-04-02T21:46:07.240Z,8.38
2023-04-02T21:48:33.814Z,12.48
2023-04-02T21:51:11.652Z,5.25
2023-04-02T21:53:38.961Z,6.55
2023-04-02T21:56:11.854Z,4.00
2023-04-02T21:58:38.423Z,5.47
2023-04-02T22:01:09.008Z,5.13
2023-04-02T22:03:38.602Z,6.85
2023-04-02T22:06:17.375Z,5.70
2023-04-02T22:08:44.795Z,5.88
2023-04-02T22:11:19.884Z,9.75
2023-04-02T22:13:47.956Z,8.80
2023-04-02T22:16:19.036Z,4.38
2023-04-02T22:18:45.860Z,9.60
2023-04-02T22:21:13.098Z,5.88
2023-04-02T22:23:41.190Z,4.68
2023-04-02T22:26:09.246Z,7.25
2023-04-02T22:28:36.234Z,5.63
2023-04-02T22:31:06.333Z,8.30
2023-04-02T22:33:33.578Z,13.48
2023-04-02T22:36:00.346Z,5.82
2023-04-02T22:38:27.325Z,8.07
2023-04-02T22:41:12.923Z,6.32
2023-04-02T22:43:40.669Z,8.32
2023-04-02T22:46:09.095Z,9.13
2023-04-02T22:48:36.297Z,7.25
2023-04-02T22:51:03.046Z,3.97
2023-04-02T22:53:29.568Z,4.97
2023-04-02T22:56:01.924Z,5.00
2023-04-02T22:58:28.553Z,5.18
2023-04-02T23:00:55.067Z,9.82
2023-04-02T23:03:21.550Z,6.03
2023-04-02T23:05:58.591Z,4.82
2023-04-02T23:08:25.284Z,4.82
2023-04-02T23:10:52.174Z,6.00
2023-04-02T23:13:18.688Z,5.07
2023-04-02T23:15:45.169Z,5.70
2023-04-02T23:18:11.651Z,7.20
2023-04-02T23:20:38.453Z,6.00
2023-04-02T23:23:05.393Z,6.57
2023-04-02T23:25:31.894Z,4.93
2023-04-02T23:27:58.415Z,3.63
2023-04-02T23:30:25.118Z,3.88
2023-04-02T23:32:51.646Z,5.47
2023-04-02T23:35:18.138Z,6.60
2023-04-02T23:37:44.652Z,6.63
2023-04-02T23:40:11.518Z,6.47
2023-04-02T23:42:38.105Z,4.25
2023-04-02T23:45:04.982Z,4.65
2023-04-02T23:47:31.547Z,8.52
2023-04-02T23:49:58.088Z,2.97
2023-04-02T23:52:24.623Z,4.53
2023-04-02T23:54:51.116Z,4.53
2023-04-02T23:57:17.894Z,7.90
2023-04-02T23:59:44.432Z,5.15
